Terminal Aerodrome Forecast
Issued by NWS

Home | Current Version | Previous Version | Text Only | Print | Product List | Glossary On
Versions: 1 2 3 4 5 6 7 8 9 10 11 12
000
FTUS42 KGSP 241100
TAFGMU
TAF
KGMU 241120Z 2412/2512 03006KT P6SM FEW250
     FM241700 10007KT P6SM SKC
     FM242000 15006KT P6SM BKN250
     FM250500 13004KT P6SM BKN060
     FM250800 14004KT P6SM BKN022
     FM250900 14004KT P6SM BKN014=

USA.gov is the U.S. government's official web portal to all federal, state and local government web resources and services.